sensor_id;sensor_type;location;lat;lon;timestamp;pressure;altitude;pressure_sealevel;temperature;humidity
20019;BME280;10170;42.502;26.526;2023-04-07T00:00:24;99533.31;;;8.35;90.81
20019;BME280;10170;42.502;26.526;2023-04-07T00:02:52;99533.00;;;8.51;89.38
20019;BME280;10170;42.502;26.526;2023-04-07T00:05:19;99514.28;;;8.53;85.18
20019;BME280;10170;42.502;26.526;2023-04-07T00:07:46;99525.38;;;8.35;85.52
20019;BME280;10170;42.502;26.526;2023-04-07T00:10:22;99525.88;;;8.45;86.20
20019;BME280;10170;42.502;26.526;2023-04-07T00:12:49;99528.28;;;8.40;85.02
20019;BME280;10170;42.502;26.526;2023-04-07T00:15:16;99518.25;;;8.08;85.13
20019;BME280;10170;42.502;26.526;2023-04-07T00:17:42;99530.97;;;8.47;83.84
20019;BME280;10170;42.502;26.526;2023-04-07T00:20:10;99530.03;;;8.61;81.34
20019;BME280;10170;42.502;26.526;2023-04-07T00:22:37;99518.09;;;8.16;82.23
20019;BME280;10170;42.502;26.526;2023-04-07T00:25:04;99528.47;;;8.11;84.09
20019;BME280;10170;42.502;26.526;2023-04-07T00:27:31;99523.16;;;8.39;84.17
20019;BME280;10170;42.502;26.526;2023-04-07T00:29:58;99534.75;;;8.31;85.06
20019;BME280;10170;42.502;26.526;2023-04-07T00:32:24;99529.88;;;8.35;84.25
20019;BME280;10170;42.502;26.526;2023-04-07T00:34:51;99532.47;;;8.28;86.25
20019;BME280;10170;42.502;26.526;2023-04-07T00:37:18;99536.28;;;8.53;83.77
20019;BME280;10170;42.502;26.526;2023-04-07T00:39:45;99528.59;;;8.59;82.55
20019;BME280;10170;42.502;26.526;2023-04-07T00:42:12;99543.50;;;8.66;82.50
20019;BME280;10170;42.502;26.526;2023-04-07T00:44:38;99542.22;;;8.56;81.78
20019;BME280;10170;42.502;26.526;2023-04-07T00:47:05;99542.88;;;8.09;84.72
20019;BME280;10170;42.502;26.526;2023-04-07T00:49:32;99553.03;;;8.05;86.01
20019;BME280;10170;42.502;26.526;2023-04-07T00:52:00;99533.50;;;8.06;84.79
20019;BME280;10170;42.502;26.526;2023-04-07T00:54:26;99537.88;;;7.93;84.88
20019;BME280;10170;42.502;26.526;2023-04-07T00:56:56;99540.41;;;8.01;86.30
20019;BME280;10170;42.502;26.526;2023-04-07T00:59:23;99538.13;;;7.98;85.96
20019;BME280;10170;42.502;26.526;2023-04-07T01:02:00;99549.97;;;8.02;87.36
20019;BME280;10170;42.502;26.526;2023-04-07T01:04:32;99545.34;;;8.31;82.55
20019;BME280;10170;42.502;26.526;2023-04-07T01:07:05;99545.97;;;8.12;81.43
20019;BME280;10170;42.502;26.526;2023-04-07T01:09:38;99546.94;;;8.05;83.31
20019;BME280;10170;42.502;26.526;2023-04-07T01:12:35;99541.91;;;8.10;82.46
20019;BME280;10170;42.502;26.526;2023-04-07T01:15:08;99541.09;;;8.16;82.30
20019;BME280;10170;42.502;26.526;2023-04-07T01:17:39;99540.47;;;8.35;81.34
20019;BME280;10170;42.502;26.526;2023-04-07T01:20:11;99538.25;;;8.17;81.14
20019;BME280;10170;42.502;26.526;2023-04-07T01:22:46;99538.13;;;7.98;83.92
20019;BME280;10170;42.502;26.526;2023-04-07T01:30:51;99542.53;;;8.12;86.75
20019;BME280;10170;42.502;26.526;2023-04-07T01:33:20;99546.38;;;8.09;86.95
20019;BME280;10170;42.502;26.526;2023-04-07T01:35:47;99545.63;;;7.94;90.10
20019;BME280;10170;42.502;26.526;2023-04-07T01:38:15;99529.84;;;7.80;90.20
20019;BME280;10170;42.502;26.526;2023-04-07T01:40:43;99536.16;;;8.06;90.54
20019;BME280;10170;42.502;26.526;2023-04-07T01:43:11;99536.06;;;7.93;90.70
20019;BME280;10170;42.502;26.526;2023-04-07T01:45:38;99544.00;;;7.93;92.17
20019;BME280;10170;42.502;26.526;2023-04-07T01:48:07;99545.56;;;7.88;94.66
20019;BME280;10170;42.502;26.526;2023-04-07T01:50:34;99532.50;;;8.07;92.58
20019;BME280;10170;42.502;26.526;2023-04-07T01:53:02;99559.59;;;8.30;89.24
20019;BME280;10170;42.502;26.526;2023-04-07T01:55:29;99553.97;;;8.46;85.28
20019;BME280;10170;42.502;26.526;2023-04-07T01:57:57;99556.81;;;8.38;84.94
20019;BME280;10170;42.502;26.526;2023-04-07T02:00:23;99550.41;;;8.05;88.66
20019;BME280;10170;42.502;26.526;2023-04-07T02:02:54;99552.69;;;7.87;91.50
20019;BME280;10170;42.502;26.526;2023-04-07T02:05:26;99536.59;;;7.89;92.99
20019;BME280;10170;42.502;26.526;2023-04-07T02:08:15;99527.19;;;7.80;95.00
20019;BME280;10170;42.502;26.526;2023-04-07T02:10:46;99551.41;;;8.25;89.87
20019;BME280;10170;42.502;26.526;2023-04-07T02:13:17;99554.09;;;8.32;89.05
20019;BME280;10170;42.502;26.526;2023-04-07T02:15:44;99544.44;;;7.97;90.29
20019;BME280;10170;42.502;26.526;2023-04-07T02:18:12;99552.13;;;8.19;92.35
20019;BME280;10170;42.502;26.526;2023-04-07T02:20:41;99553.59;;;8.22;91.17
20019;BME280;10170;42.502;26.526;2023-04-07T02:23:09;99566.78;;;8.15;90.65
20019;BME280;10170;42.502;26.526;2023-04-07T02:25:36;99563.06;;;8.10;89.22
20019;BME280;10170;42.502;26.526;2023-04-07T02:28:05;99556.47;;;7.78;90.42
20019;BME280;10170;42.502;26.526;2023-04-07T02:30:33;99566.03;;;8.00;90.52
20019;BME280;10170;42.502;26.526;2023-04-07T02:32:59;99566.09;;;8.07;90.59
20019;BME280;10170;42.502;26.526;2023-04-07T02:35:26;99569.63;;;7.93;91.39
20019;BME280;10170;42.502;26.526;2023-04-07T02:37:53;99563.72;;;8.12;89.56
20019;BME280;10170;42.502;26.526;2023-04-07T02:40:20;99567.75;;;8.08;86.55
20019;BME280;10170;42.502;26.526;2023-04-07T02:42:46;99575.38;;;7.96;86.06
20019;BME280;10170;42.502;26.526;2023-04-07T02:45:13;99581.94;;;8.00;86.79
20019;BME280;10170;42.502;26.526;2023-04-07T02:47:41;99582.97;;;7.99;88.92
20019;BME280;10170;42.502;26.526;2023-04-07T02:50:08;99575.38;;;7.75;94.57
20019;BME280;10170;42.502;26.526;2023-04-07T02:52:35;99581.56;;;7.82;99.03
20019;BME280;10170;42.502;26.526;2023-04-07T02:55:02;99577.09;;;7.83;100.00
20019;BME280;10170;42.502;26.526;2023-04-07T02:57:29;99574.25;;;7.84;100.00
20019;BME280;10170;42.502;26.526;2023-04-07T02:59:55;99570.72;;;7.98;100.00
20019;BME280;10170;42.502;26.526;2023-04-07T03:02:23;99583.25;;;7.90;100.00
20019;BME280;10170;42.502;26.526;2023-04-07T03:04:51;99579.06;;;7.74;100.00
20019;BME280;10170;42.502;26.526;2023-04-07T03:07:21;99576.31;;;7.68;100.00
20019;BME280;10170;42.502;26.526;2023-04-07T03:09:48;99576.13;;;7.69;100.00
20019;BME280;10170;42.502;26.526;2023-04-07T03:12:14;99585.19;;;7.60;100.00
20019;BME280;10170;42.502;26.526;2023-04-07T03:14:41;99558.63;;;7.47;100.00
20019;BME280;10170;42.502;26.526;2023-04-07T03:17:08;99578.38;;;7.51;100.00
20019;BME280;10170;42.502;26.526;2023-04-07T03:19:35;99583.47;;;7.31;100.00
20019;BME280;10170;42.502;26.526;2023-04-07T03:22:02;99577.25;;;7.39;100.00
20019;BME280;10170;42.502;26.526;2023-04-07T03:24:28;99583.53;;;7.53;100.00
20019;BME280;10170;42.502;26.526;2023-04-07T03:26:55;99573.81;;;7.60;100.00
20019;BME280;10170;42.502;26.526;2023-04-07T03:29:22;99575.19;;;7.56;100.00
20019;BME280;10170;42.502;26.526;2023-04-07T03:31:49;99577.16;;;7.47;100.00
20019;BME280;10170;42.502;26.526;2023-04-07T03:34:16;99581.28;;;7.35;100.00
20019;BME280;10170;42.502;26.526;2023-04-07T03:36:42;99583.84;;;7.28;100.00
20019;BME280;10170;42.502;26.526;2023-04-07T03:39:09;99585.00;;;7.40;100.00
20019;BME280;10170;42.502;26.526;2023-04-07T03:41:36;99585.56;;;7.36;100.00
20019;BME280;10170;42.502;26.526;2023-04-07T03:44:02;99589.66;;;7.38;100.00
20019;BME280;10170;42.502;26.526;2023-04-07T03:46:29;99589.50;;;7.40;100.00
20019;BME280;10170;42.502;26.526;2023-04-07T03:48:56;99594.66;;;7.48;100.00
20019;BME280;10170;42.502;26.526;2023-04-07T03:51:23;99599.06;;;7.41;100.00
20019;BME280;10170;42.502;26.526;2023-04-07T03:53:49;99591.25;;;7.33;100.00
20019;BME280;10170;42.502;26.526;2023-04-07T03:56:17;99592.34;;;7.24;100.00
20019;BME280;10170;42.502;26.526;2023-04-07T03:58:43;99610.03;;;7.23;100.00
20019;BME280;10170;42.502;26.526;2023-04-07T04:01:11;99586.91;;;7.11;100.00
20019;BME280;10170;42.502;26.526;2023-04-07T04:03:38;99608.47;;;7.29;100.00
20019;BME280;10170;42.502;26.526;2023-04-07T04:06:05;99613.00;;;7.35;100.00
20019;BME280;10170;42.502;26.526;2023-04-07T04:08:32;99611.03;;;7.22;100.00
20019;BME280;10170;42.502;26.526;2023-04-07T04:10:59;99614.03;;;7.34;100.00
20019;BME280;10170;42.502;26.526;2023-04-07T04:13:25;99622.03;;;7.40;100.00
20019;BME280;10170;42.502;26.526;2023-04-07T04:15:52;99620.91;;;7.49;100.00
20019;BME280;10170;42.502;26.526;2023-04-07T04:18:19;99615.72;;;7.56;100.00
20019;BME280;10170;42.502;26.526;2023-04-07T04:20:46;99623.47;;;7.58;100.00
20019;BME280;10170;42.502;26.526;2023-04-07T04:23:14;99616.09;;;7.38;100.00
20019;BME280;10170;42.502;26.526;2023-04-07T04:25:41;99623.91;;;7.25;100.00
20019;BME280;10170;42.502;26.526;2023-04-07T04:28:07;99628.81;;;7.14;100.00
20019;BME280;10170;42.502;26.526;2023-04-07T04:30:34;99628.47;;;7.17;100.00
20019;BME280;10170;42.502;26.526;2023-04-07T04:33:01;99631.91;;;7.17;100.00
20019;BME280;10170;42.502;26.526;2023-04-07T04:35:28;99635.13;;;6.98;100.00
20019;BME280;10170;42.502;26.526;2023-04-07T04:37:55;99637.66;;;7.06;100.00
20019;BME280;10170;42.502;26.526;2023-04-07T04:40:22;99637.22;;;7.03;100.00
20019;BME280;10170;42.502;26.526;2023-04-07T04:42:48;99643.34;;;7.03;100.00
20019;BME280;10170;42.502;26.526;2023-04-07T04:45:15;99639.84;;;7.17;100.00
20019;BME280;10170;42.502;26.526;2023-04-07T04:47:42;99648.09;;;7.08;100.00
20019;BME280;10170;42.502;26.526;2023-04-07T04:50:09;99647.00;;;7.02;100.00
20019;BME280;10170;42.502;26.526;2023-04-07T04:52:36;99651.97;;;7.12;100.00
20019;BME280;10170;42.502;26.526;2023-04-07T04:55:05;99652.34;;;7.09;100.00
20019;BME280;10170;42.502;26.526;2023-04-07T04:57:38;99645.97;;;6.74;100.00
20019;BME280;10170;42.502;26.526;2023-04-07T05:00:06;99655.09;;;6.72;100.00
20019;BME280;10170;42.502;26.526;2023-04-07T05:02:33;99670.41;;;6.91;100.00
20019;BME280;10170;42.502;26.526;2023-04-07T05:05:00;99670.03;;;6.94;100.00
20019;BME280;10170;42.502;26.526;2023-04-07T05:07:28;99674.22;;;7.03;100.00
20019;BME280;10170;42.502;26.526;2023-04-07T05:09:55;99670.94;;;7.15;100.00
20019;BME280;10170;42.502;26.526;2023-04-07T05:12:22;99679.31;;;7.19;100.00
20019;BME280;10170;42.502;26.526;2023-04-07T05:14:48;99678.06;;;7.15;100.00
20019;BME280;10170;42.502;26.526;2023-04-07T05:17:15;99685.88;;;7.08;100.00
20019;BME280;10170;42.502;26.526;2023-04-07T05:19:42;99691.28;;;7.00;100.00
20019;BME280;10170;42.502;26.526;2023-04-07T05:22:08;99692.56;;;7.04;100.00
20019;BME280;10170;42.502;26.526;2023-04-07T05:24:35;99700.94;;;6.93;100.00
20019;BME280;10170;42.502;26.526;2023-04-07T05:27:02;99703.75;;;7.06;100.00
20019;BME280;10170;42.502;26.526;2023-04-07T05:29:29;99693.66;;;6.95;100.00
20019;BME280;10170;42.502;26.526;2023-04-07T05:31:56;99702.22;;;6.83;100.00
20019;BME280;10170;42.502;26.526;2023-04-07T05:34:22;99693.19;;;6.77;100.00
20019;BME280;10170;42.502;26.526;2023-04-07T05:36:49;99679.66;;;6.72;100.00
20019;BME280;10170;42.502;26.526;2023-04-07T05:39:16;99692.50;;;6.61;100.00
20019;BME280;10170;42.502;26.526;2023-04-07T05:41:43;99693.69;;;6.73;100.00
20019;BME280;10170;42.502;26.526;2023-04-07T05:44:09;99679.81;;;6.93;100.00
20019;BME280;10170;42.502;26.526;2023-04-07T05:46:36;99687.16;;;6.98;100.00
20019;BME280;10170;42.502;26.526;2023-04-07T05:49:03;99683.44;;;6.92;100.00
20019;BME280;10170;42.502;26.526;2023-04-07T05:51:45;99689.28;;;7.02;100.00
20019;BME280;10170;42.502;26.526;2023-04-07T05:54:14;99692.66;;;7.11;100.00
20019;BME280;10170;42.502;26.526;2023-04-07T05:56:41;99700.56;;;6.82;100.00
20019;BME280;10170;42.502;26.526;2023-04-07T05:59:08;99694.75;;;7.01;100.00
20019;BME280;10170;42.502;26.526;2023-04-07T06:01:35;99701.69;;;7.16;100.00
20019;BME280;10170;42.502;26.526;2023-04-07T06:04:02;99705.22;;;7.09;100.00
20019;BME280;10170;42.502;26.526;2023-04-07T06:06:29;99714.91;;;7.16;100.00
20019;BME280;10170;42.502;26.526;2023-04-07T06:08:56;99714.34;;;7.35;100.00
20019;BME280;10170;42.502;26.526;2023-04-07T06:11:25;99710.78;;;7.14;100.00
20019;BME280;10170;42.502;26.526;2023-04-07T06:13:52;99708.31;;;7.12;100.00
20019;BME280;10170;42.502;26.526;2023-04-07T06:16:19;99713.34;;;7.36;100.00
20019;BME280;10170;42.502;26.526;2023-04-07T06:18:46;99722.06;;;7.52;100.00
20019;BME280;10170;42.502;26.526;2023-04-07T06:21:13;99729.75;;;7.61;100.00
20019;BME280;10170;42.502;26.526;2023-04-07T06:23:39;99723.16;;;7.72;100.00
20019;BME280;10170;42.502;26.526;2023-04-07T06:26:10;99734.16;;;7.90;100.00
20019;BME280;10170;42.502;26.526;2023-04-07T06:28:40;99715.09;;;7.80;100.00
20019;BME280;10170;42.502;26.526;2023-04-07T06:31:07;99712.97;;;7.90;100.00
20019;BME280;10170;42.502;26.526;2023-04-07T06:33:34;99738.28;;;8.13;100.00
20019;BME280;10170;42.502;26.526;2023-04-07T06:36:01;99738.63;;;8.10;100.00
20019;BME280;10170;42.502;26.526;2023-04-07T06:38:27;99730.00;;;8.02;100.00
20019;BME280;10170;42.502;26.526;2023-04-07T06:40:54;99742.19;;;8.17;100.00
20019;BME280;10170;42.502;26.526;2023-04-07T06:43:21;99747.16;;;8.41;100.00
20019;BME280;10170;42.502;26.526;2023-04-07T06:45:48;99753.47;;;8.62;100.00
20019;BME280;10170;42.502;26.526;2023-04-07T06:48:14;99756.84;;;8.77;100.00
20019;BME280;10170;42.502;26.526;2023-04-07T06:50:45;99754.94;;;8.92;100.00
20019;BME280;10170;42.502;26.526;2023-04-07T06:53:11;99761.22;;;8.63;96.24
20019;BME280;10170;42.502;26.526;2023-04-07T06:55:38;99765.25;;;8.59;100.00
20019;BME280;10170;42.502;26.526;2023-04-07T06:58:05;99762.34;;;8.75;100.00
20019;BME280;10170;42.502;26.526;2023-04-07T07:00:32;99761.34;;;8.76;100.00
20019;BME280;10170;42.502;26.526;2023-04-07T07:02:58;99766.13;;;8.24;100.00
20019;BME280;10170;42.502;26.526;2023-04-07T07:05:25;99765.84;;;8.19;100.00
20019;BME280;10170;42.502;26.526;2023-04-07T07:07:52;99766.28;;;8.22;100.00
20019;BME280;10170;42.502;26.526;2023-04-07T07:10:19;99765.13;;;8.10;100.00
20019;BME280;10170;42.502;26.526;2023-04-07T07:12:46;99771.19;;;8.61;100.00
20019;BME280;10170;42.502;26.526;2023-04-07T07:15:13;99765.75;;;8.69;100.00
20019;BME280;10170;42.502;26.526;2023-04-07T07:17:39;99774.16;;;8.73;100.00
20019;BME280;10170;42.502;26.526;2023-04-07T07:20:07;99750.28;;;8.51;100.00
20019;BME280;10170;42.502;26.526;2023-04-07T07:22:34;99781.56;;;8.84;100.00
20019;BME280;10170;42.502;26.526;2023-04-07T07:25:01;99795.72;;;8.91;100.00
20019;BME280;10170;42.502;26.526;2023-04-07T07:27:28;99789.44;;;8.98;100.00
20019;BME280;10170;42.502;26.526;2023-04-07T07:29:54;99789.69;;;8.55;100.00
20019;BME280;10170;42.502;26.526;2023-04-07T07:32:21;99789.53;;;8.41;100.00
20019;BME280;10170;42.502;26.526;2023-04-07T07:34:48;99792.53;;;8.53;100.00
20019;BME280;10170;42.502;26.526;2023-04-07T07:37:15;99791.50;;;8.54;100.00
20019;BME280;10170;42.502;26.526;2023-04-07T07:39:42;99782.22;;;8.43;100.00
20019;BME280;10170;42.502;26.526;2023-04-07T07:42:08;99791.44;;;8.69;100.00
20019;BME280;10170;42.502;26.526;2023-04-07T07:44:35;99792.34;;;8.55;100.00
20019;BME280;10170;42.502;26.526;2023-04-07T07:47:02;99801.03;;;8.48;100.00
20019;BME280;10170;42.502;26.526;2023-04-07T07:49:28;99801.03;;;8.48;100.00
20019;BME280;10170;42.502;26.526;2023-04-07T07:51:55;99798.38;;;8.27;100.00
20019;BME280;10170;42.502;26.526;2023-04-07T07:54:22;99798.38;;;8.27;100.00
20019;BME280;10170;42.502;26.526;2023-04-07T07:56:49;99805.28;;;8.28;100.00
20019;BME280;10170;42.502;26.526;2023-04-07T07:59:16;99804.75;;;8.54;100.00
20019;BME280;10170;42.502;26.526;2023-04-07T08:01:43;99811.38;;;8.65;100.00
20019;BME280;10170;42.502;26.526;2023-04-07T08:04:11;99818.16;;;8.67;100.00
20019;BME280;10170;42.502;26.526;2023-04-07T08:06:38;99819.72;;;8.83;100.00
20019;BME280;10170;42.502;26.526;2023-04-07T08:09:05;99815.06;;;8.64;100.00
20019;BME280;10170;42.502;26.526;2023-04-07T08:11:31;99827.16;;;8.94;100.00
20019;BME280;10170;42.502;26.526;2023-04-07T08:13:58;99825.16;;;8.75;100.00
20019;BME280;10170;42.502;26.526;2023-04-07T08:16:25;99827.41;;;8.99;100.00
20019;BME280;10170;42.502;26.526;2023-04-07T08:18:52;99826.09;;;8.88;100.00
20019;BME280;10170;42.502;26.526;2023-04-07T08:21:19;99833.44;;;8.93;100.00
20019;BME280;10170;42.502;26.526;2023-04-07T08:23:46;99820.72;;;8.82;100.00
20019;BME280;10170;42.502;26.526;2023-04-07T08:26:13;99825.22;;;8.24;100.00
20019;BME280;10170;42.502;26.526;2023-04-07T08:28:40;99827.09;;;8.45;100.00
20019;BME280;10170;42.502;26.526;2023-04-07T08:31:07;99819.56;;;8.27;100.00
20019;BME280;10170;42.502;26.526;2023-04-07T08:33:34;99821.16;;;8.64;100.00
20019;BME280;10170;42.502;26.526;2023-04-07T08:36:00;99827.66;;;8.62;100.00
20019;BME280;10170;42.502;26.526;2023-04-07T08:38:27;99827.66;;;8.62;100.00
20019;BME280;10170;42.502;26.526;2023-04-07T08:41:01;99820.47;;;8.77;100.00
20019;BME280;10170;42.502;26.526;2023-04-07T08:43:29;99828.94;;;8.66;100.00
20019;BME280;10170;42.502;26.526;2023-04-07T08:45:56;99831.84;;;8.71;100.00
20019;BME280;10170;42.502;26.526;2023-04-07T08:48:24;99827.53;;;8.91;100.00
20019;BME280;10170;42.502;26.526;2023-04-07T08:50:52;99830.91;;;8.78;100.00
20019;BME280;10170;42.502;26.526;2023-04-07T08:53:25;99835.81;;;8.81;100.00
20019;BME280;10170;42.502;26.526;2023-04-07T08:55:55;99838.59;;;8.94;94.62
20019;BME280;10170;42.502;26.526;2023-04-07T08:58:22;99835.16;;;9.00;92.35
20019;BME280;10170;42.502;26.526;2023-04-07T09:00:49;99825.72;;;9.19;89.63
20019;BME280;10170;42.502;26.526;2023-04-07T09:03:17;99831.44;;;9.16;86.83
20019;BME280;10170;42.502;26.526;2023-04-07T09:05:45;99835.56;;;9.52;84.20
20019;BME280;10170;42.502;26.526;2023-04-07T09:08:12;99836.09;;;9.14;85.00
20019;BME280;10170;42.502;26.526;2023-04-07T09:10:39;99829.44;;;9.24;85.16
20019;BME280;10170;42.502;26.526;2023-04-07T09:13:06;99833.09;;;9.79;82.63
20019;BME280;10170;42.502;26.526;2023-04-07T09:15:32;99825.03;;;10.06;80.50
20019;BME280;10170;42.502;26.526;2023-04-07T09:17:59;99832.16;;;10.46;77.64
20019;BME280;10170;42.502;26.526;2023-04-07T09:20:26;99837.44;;;10.33;76.22
20019;BME280;10170;42.502;26.526;2023-04-07T09:22:52;99836.66;;;10.46;74.98
20019;BME280;10170;42.502;26.526;2023-04-07T09:25:21;99833.03;;;10.73;72.84
20019;BME280;10170;42.502;26.526;2023-04-07T09:28:03;99837.47;;;10.46;72.86
20019;BME280;10170;42.502;26.526;2023-04-07T09:30:32;99842.13;;;10.38;72.53
20019;BME280;10170;42.502;26.526;2023-04-07T09:33:00;99837.31;;;10.68;72.95
20019;BME280;10170;42.502;26.526;2023-04-07T09:35:27;99830.59;;;10.85;72.49
20019;BME280;10170;42.502;26.526;2023-04-07T09:38:05;99836.09;;;10.10;73.65
20019;BME280;10170;42.502;26.526;2023-04-07T09:40:34;99830.50;;;10.45;73.62
20019;BME280;10170;42.502;26.526;2023-04-07T09:43:02;99833.75;;;9.87;74.90
20019;BME280;10170;42.502;26.526;2023-04-07T09:45:30;99841.84;;;9.79;75.74
20019;BME280;10170;42.502;26.526;2023-04-07T09:48:06;99833.69;;;10.15;76.57
20019;BME280;10170;42.502;26.526;2023-04-07T09:50:35;99832.91;;;10.21;75.66
20019;BME280;10170;42.502;26.526;2023-04-07T09:53:02;99834.00;;;10.39;74.26
20019;BME280;10170;42.502;26.526;2023-04-07T09:55:30;99819.28;;;10.03;73.27
20019;BME280;10170;42.502;26.526;2023-04-07T09:57:57;99834.31;;;10.17;72.52
20019;BME280;10170;42.502;26.526;2023-04-07T10:00:24;99831.91;;;10.35;70.82
20019;BME280;10170;42.502;26.526;2023-04-07T10:02:51;99823.03;;;10.95;69.13
20019;BME280;10170;42.502;26.526;2023-04-07T10:05:19;99827.75;;;10.86;68.29
20019;BME280;10170;42.502;26.526;2023-04-07T10:07:47;99830.59;;;10.78;67.28
20019;BME280;10170;42.502;26.526;2023-04-07T10:10:14;99827.88;;;10.52;65.69
20019;BME280;10170;42.502;26.526;2023-04-07T10:12:41;99833.00;;;10.67;66.55
20019;BME280;10170;42.502;26.526;2023-04-07T10:15:12;99824.44;;;10.71;67.73
20019;BME280;10170;42.502;26.526;2023-04-07T10:17:48;99832.41;;;10.65;65.09
20019;BME280;10170;42.502;26.526;2023-04-07T10:20:17;99830.66;;;10.18;64.74
20019;BME280;10170;42.502;26.526;2023-04-07T10:22:51;99840.03;;;10.20;63.83
20019;BME280;10170;42.502;26.526;2023-04-07T10:25:21;99832.91;;;10.21;65.22
20019;BME280;10170;42.502;26.526;2023-04-07T10:27:55;99835.97;;;10.24;65.13
20019;BME280;10170;42.502;26.526;2023-04-07T10:30:27;99837.94;;;10.09;66.83
20019;BME280;10170;42.502;26.526;2023-04-07T10:32:54;99836.84;;;9.97;67.08
20019;BME280;10170;42.502;26.526;2023-04-07T10:35:22;99827.88;;;9.98;68.43
20019;BME280;10170;42.502;26.526;2023-04-07T10:40:36;99832.16;;;9.58;68.66
20019;BME280;10170;42.502;26.526;2023-04-07T10:43:04;99834.41;;;10.02;69.08
20019;BME280;10170;42.502;26.526;2023-04-07T10:48:21;99832.59;;;10.50;67.13
20019;BME280;10170;42.502;26.526;2023-04-07T10:53:30;99835.28;;;10.76;65.04
20019;BME280;10170;42.502;26.526;2023-04-07T10:55:57;99827.34;;;11.15;64.06
20019;BME280;10170;42.502;26.526;2023-04-07T10:58:27;99830.13;;;11.86;63.47
20019;BME280;10170;42.502;26.526;2023-04-07T11:03:36;99831.16;;;12.35;60.91
20019;BME280;10170;42.502;26.526;2023-04-07T11:06:07;99825.25;;;11.70;61.81
20019;BME280;10170;42.502;26.526;2023-04-07T11:08:38;99836.13;;;11.61;62.00
20019;BME280;10170;42.502;26.526;2023-04-07T11:11:07;99827.13;;;11.43;62.96
20019;BME280;10170;42.502;26.526;2023-04-07T11:13:49;99821.72;;;11.89;63.14
20019;BME280;10170;42.502;26.526;2023-04-07T11:16:18;99826.47;;;11.80;62.82
20019;BME280;10170;42.502;26.526;2023-04-07T11:18:59;99830.00;;;12.25;61.89
20019;BME280;10170;42.502;26.526;2023-04-07T11:21:26;99819.31;;;12.62;61.42
20019;BME280;10170;42.502;26.526;2023-04-07T11:23:53;99813.88;;;13.13;59.97
20019;BME280;10170;42.502;26.526;2023-04-07T11:26:19;99809.44;;;13.25;59.58
20019;BME280;10170;42.502;26.526;2023-04-07T11:28:53;99818.81;;;12.47;61.22
20019;BME280;10170;42.502;26.526;2023-04-07T11:31:24;99805.66;;;12.52;60.98
20019;BME280;10170;42.502;26.526;2023-04-07T11:33:56;99809.09;;;12.59;60.67
20019;BME280;10170;42.502;26.526;2023-04-07T11:36:37;99811.25;;;13.07;58.97
20019;BME280;10170;42.502;26.526;2023-04-07T11:39:04;99809.88;;;14.37;56.25
20019;BME280;10170;42.502;26.526;2023-04-07T11:41:32;99796.72;;;14.65;53.32
20019;BME280;10170;42.502;26.526;2023-04-07T11:44:09;99797.13;;;14.81;54.53
20019;BME280;10170;42.502;26.526;2023-04-07T11:47:00;99788.22;;;14.68;53.59
20019;BME280;10170;42.502;26.526;2023-04-07T11:49:30;99798.66;;;14.11;54.11
20019;BME280;10170;42.502;26.526;2023-04-07T11:52:00;99799.84;;;14.62;52.66
20019;BME280;10170;42.502;26.526;2023-04-07T11:54:41;99795.78;;;15.13;52.98
20019;BME280;10170;42.502;26.526;2023-04-07T11:57:09;99799.78;;;15.45;52.03
20019;BME280;10170;42.502;26.526;2023-04-07T11:59:39;99802.31;;;14.75;52.78
20019;BME280;10170;42.502;26.526;2023-04-07T12:02:06;99783.63;;;13.80;54.07
20019;BME280;10170;42.502;26.526;2023-04-07T12:04:34;99801.41;;;13.01;56.33
20019;BME280;10170;42.502;26.526;2023-04-07T12:07:10;99806.50;;;13.09;57.22
20019;BME280;10170;42.502;26.526;2023-04-07T12:09:39;99800.59;;;13.07;57.27
20019;BME280;10170;42.502;26.526;2023-04-07T12:12:06;99801.59;;;13.06;58.34
20019;BME280;10170;42.502;26.526;2023-04-07T12:14:34;99792.19;;;12.97;57.19
20019;BME280;10170;42.502;26.526;2023-04-07T12:17:01;99795.81;;;13.09;56.76
20019;BME280;10170;42.502;26.526;2023-04-07T12:19:30;99802.69;;;13.65;55.78
20019;BME280;10170;42.502;26.526;2023-04-07T12:22:02;99806.94;;;13.30;57.26
20019;BME280;10170;42.502;26.526;2023-04-07T12:24:29;99791.19;;;12.98;57.37
20019;BME280;10170;42.502;26.526;2023-04-07T12:26:57;99789.47;;;13.89;56.84
20019;BME280;10170;42.502;26.526;2023-04-07T12:29:25;99791.31;;;13.88;56.12
20019;BME280;10170;42.502;26.526;2023-04-07T12:31:51;99799.47;;;14.11;55.66
20019;BME280;10170;42.502;26.526;2023-04-07T12:34:18;99786.88;;;13.64;56.65
20019;BME280;10170;42.502;26.526;2023-04-07T12:36:45;99793.84;;;12.98;58.07
20019;BME280;10170;42.502;26.526;2023-04-07T12:39:12;99800.81;;;12.99;58.84
20019;BME280;10170;42.502;26.526;2023-04-07T12:41:39;99793.16;;;12.46;59.92
20019;BME280;10170;42.502;26.526;2023-04-07T12:44:05;99796.69;;;12.40;60.52
20019;BME280;10170;42.502;26.526;2023-04-07T12:46:33;99797.31;;;12.36;61.46
20019;BME280;10170;42.502;26.526;2023-04-07T12:48:59;99799.16;;;12.35;61.41
20019;BME280;10170;42.502;26.526;2023-04-07T12:51:26;99800.34;;;12.46;61.92
20019;BME280;10170;42.502;26.526;2023-04-07T12:53:53;99793.63;;;12.37;62.55
20019;BME280;10170;42.502;26.526;2023-04-07T12:56:20;99802.59;;;12.05;63.13
20019;BME280;10170;42.502;26.526;2023-04-07T12:58:50;99797.75;;;12.33;63.69
20019;BME280;10170;42.502;26.526;2023-04-07T13:01:16;99790.50;;;12.46;64.00
20019;BME280;10170;42.502;26.526;2023-04-07T13:03:43;99793.00;;;12.41;63.35
20019;BME280;10170;42.502;26.526;2023-04-07T13:06:10;99791.25;;;12.60;63.60
20019;BME280;10170;42.502;26.526;2023-04-07T13:08:38;99789.44;;;12.85;62.76
20019;BME280;10170;42.502;26.526;2023-04-07T13:11:05;99785.81;;;12.73;62.76
20019;BME280;10170;42.502;26.526;2023-04-07T13:13:32;99796.06;;;12.76;63.01